sensor_id;sensor_type;location;lat;lon;timestamp;P1;durP1;ratioP1;P2;durP2;ratioP2
12654;SDS011;6392;44.644;11.448;2023-07-31T00:02:02;2.92;;;2.20;;
12654;SDS011;6392;44.644;11.448;2023-07-31T00:04:29;4.10;;;2.40;;
12654;SDS011;6392;44.644;11.448;2023-07-31T00:06:56;2.75;;;1.88;;
12654;SDS011;6392;44.644;11.448;2023-07-31T00:09:24;4.78;;;2.33;;
12654;SDS011;6392;44.644;11.448;2023-07-31T00:11:52;4.55;;;2.17;;
12654;SDS011;6392;44.644;11.448;2023-07-31T00:14:19;2.95;;;2.03;;
12654;SDS011;6392;44.644;11.448;2023-07-31T00:16:46;3.85;;;2.30;;
12654;SDS011;6392;44.644;11.448;2023-07-31T00:19:13;3.53;;;1.98;;
12654;SDS011;6392;44.644;11.448;2023-07-31T00:21:40;4.03;;;2.17;;
12654;SDS011;6392;44.644;11.448;2023-07-31T00:24:07;4.40;;;2.33;;
12654;SDS011;6392;44.644;11.448;2023-07-31T00:26:34;3.88;;;2.22;;
12654;SDS011;6392;44.644;11.448;2023-07-31T00:29:02;3.45;;;2.30;;
12654;SDS011;6392;44.644;11.448;2023-07-31T00:31:29;3.85;;;2.28;;
12654;SDS011;6392;44.644;11.448;2023-07-31T00:33:56;2.60;;;2.13;;
12654;SDS011;6392;44.644;11.448;2023-07-31T00:36:23;3.58;;;2.20;;
12654;SDS011;6392;44.644;11.448;2023-07-31T00:38:50;4.28;;;2.38;;
12654;SDS011;6392;44.644;11.448;2023-07-31T00:41:17;4.72;;;2.33;;
12654;SDS011;6392;44.644;11.448;2023-07-31T00:43:44;3.80;;;1.73;;
12654;SDS011;6392;44.644;11.448;2023-07-31T00:46:12;3.28;;;2.28;;
12654;SDS011;6392;44.644;11.448;2023-07-31T00:48:40;4.30;;;2.20;;
12654;SDS011;6392;44.644;11.448;2023-07-31T00:51:07;2.67;;;2.03;;
12654;SDS011;6392;44.644;11.448;2023-07-31T00:53:34;3.83;;;2.72;;
12654;SDS011;6392;44.644;11.448;2023-07-31T00:56:02;4.55;;;2.45;;
12654;SDS011;6392;44.644;11.448;2023-07-31T00:58:30;3.28;;;2.30;;
12654;SDS011;6392;44.644;11.448;2023-07-31T01:00:57;3.08;;;2.42;;
12654;SDS011;6392;44.644;11.448;2023-07-31T01:03:26;3.22;;;2.50;;
12654;SDS011;6392;44.644;11.448;2023-07-31T01:05:55;3.85;;;2.47;;
12654;SDS011;6392;44.644;11.448;2023-07-31T01:08:32;4.65;;;2.30;;
12654;SDS011;6392;44.644;11.448;2023-07-31T01:11:06;4.47;;;2.83;;
12654;SDS011;6392;44.644;11.448;2023-07-31T01:13:38;4.75;;;2.30;;
12654;SDS011;6392;44.644;11.448;2023-07-31T01:16:05;3.90;;;2.55;;
12654;SDS011;6392;44.644;11.448;2023-07-31T01:18:33;3.25;;;2.67;;
12654;SDS011;6392;44.644;11.448;2023-07-31T01:21:03;3.65;;;2.28;;
12654;SDS011;6392;44.644;11.448;2023-07-31T01:23:57;3.53;;;2.05;;
12654;SDS011;6392;44.644;11.448;2023-07-31T01:26:51;5.53;;;2.67;;
12654;SDS011;6392;44.644;11.448;2023-07-31T01:29:26;3.15;;;2.28;;
12654;SDS011;6392;44.644;11.448;2023-07-31T01:31:59;4.10;;;2.38;;
12654;SDS011;6392;44.644;11.448;2023-07-31T01:34:28;4.10;;;2.50;;
12654;SDS011;6392;44.644;11.448;2023-07-31T01:36:56;4.68;;;2.65;;
12654;SDS011;6392;44.644;11.448;2023-07-31T01:39:23;4.90;;;2.58;;
12654;SDS011;6392;44.644;11.448;2023-07-31T01:41:52;3.58;;;2.53;;
12654;SDS011;6392;44.644;11.448;2023-07-31T01:44:19;4.07;;;2.50;;
12654;SDS011;6392;44.644;11.448;2023-07-31T01:46:46;3.40;;;2.50;;
12654;SDS011;6392;44.644;11.448;2023-07-31T01:49:13;3.90;;;2.33;;
12654;SDS011;6392;44.644;11.448;2023-07-31T01:51:40;3.22;;;2.47;;
12654;SDS011;6392;44.644;11.448;2023-07-31T01:54:07;3.97;;;2.50;;
12654;SDS011;6392;44.644;11.448;2023-07-31T01:56:34;2.45;;;2.17;;
12654;SDS011;6392;44.644;11.448;2023-07-31T01:59:02;4.40;;;2.20;;
12654;SDS011;6392;44.644;11.448;2023-07-31T02:01:29;4.53;;;2.20;;
12654;SDS011;6392;44.644;11.448;2023-07-31T02:03:56;3.83;;;2.30;;
12654;SDS011;6392;44.644;11.448;2023-07-31T02:06:23;3.20;;;2.30;;
12654;SDS011;6392;44.644;11.448;2023-07-31T02:08:50;2.67;;;2.40;;
12654;SDS011;6392;44.644;11.448;2023-07-31T02:11:17;3.17;;;2.42;;
12654;SDS011;6392;44.644;11.448;2023-07-31T02:13:44;3.67;;;2.60;;
12654;SDS011;6392;44.644;11.448;2023-07-31T02:16:12;4.13;;;2.30;;
12654;SDS011;6392;44.644;11.448;2023-07-31T02:18:39;4.85;;;2.33;;
12654;SDS011;6392;44.644;11.448;2023-07-31T02:21:06;2.90;;;1.95;;
12654;SDS011;6392;44.644;11.448;2023-07-31T02:23:33;3.95;;;2.28;;
12654;SDS011;6392;44.644;11.448;2023-07-31T02:26:00;3.42;;;2.13;;
12654;SDS011;6392;44.644;11.448;2023-07-31T02:28:28;3.15;;;2.38;;
12654;SDS011;6392;44.644;11.448;2023-07-31T02:30:55;3.40;;;2.17;;
12654;SDS011;6392;44.644;11.448;2023-07-31T02:33:23;5.35;;;2.40;;
12654;SDS011;6392;44.644;11.448;2023-07-31T02:35:50;3.33;;;2.50;;
12654;SDS011;6392;44.644;11.448;2023-07-31T02:38:17;4.00;;;2.65;;
12654;SDS011;6392;44.644;11.448;2023-07-31T02:40:44;4.13;;;2.35;;
12654;SDS011;6392;44.644;11.448;2023-07-31T02:43:11;3.97;;;2.35;;
12654;SDS011;6392;44.644;11.448;2023-07-31T02:45:38;3.97;;;2.53;;
12654;SDS011;6392;44.644;11.448;2023-07-31T02:48:05;8.20;;;2.40;;
12654;SDS011;6392;44.644;11.448;2023-07-31T02:50:33;2.67;;;1.83;;
12654;SDS011;6392;44.644;11.448;2023-07-31T02:53:00;4.40;;;2.50;;
12654;SDS011;6392;44.644;11.448;2023-07-31T02:55:27;4.57;;;2.47;;
12654;SDS011;6392;44.644;11.448;2023-07-31T02:57:54;4.53;;;2.53;;
12654;SDS011;6392;44.644;11.448;2023-07-31T03:00:21;4.13;;;2.38;;
12654;SDS011;6392;44.644;11.448;2023-07-31T03:02:48;3.50;;;2.60;;
12654;SDS011;6392;44.644;11.448;2023-07-31T03:05:15;2.70;;;2.50;;
12654;SDS011;6392;44.644;11.448;2023-07-31T03:07:44;3.42;;;2.88;;
12654;SDS011;6392;44.644;11.448;2023-07-31T03:10:11;3.38;;;2.60;;
12654;SDS011;6392;44.644;11.448;2023-07-31T03:12:38;4.23;;;3.07;;
12654;SDS011;6392;44.644;11.448;2023-07-31T03:15:05;4.73;;;2.30;;
12654;SDS011;6392;44.644;11.448;2023-07-31T03:17:33;2.40;;;2.20;;
12654;SDS011;6392;44.644;11.448;2023-07-31T03:20:00;3.27;;;2.60;;
12654;SDS011;6392;44.644;11.448;2023-07-31T03:22:27;3.67;;;2.50;;
12654;SDS011;6392;44.644;11.448;2023-07-31T03:24:55;4.23;;;2.53;;
12654;SDS011;6392;44.644;11.448;2023-07-31T03:27:22;3.73;;;2.77;;
12654;SDS011;6392;44.644;11.448;2023-07-31T03:29:49;4.17;;;2.60;;
12654;SDS011;6392;44.644;11.448;2023-07-31T03:32:16;4.57;;;2.53;;
12654;SDS011;6392;44.644;11.448;2023-07-31T03:34:43;3.43;;;2.60;;
12654;SDS011;6392;44.644;11.448;2023-07-31T03:37:10;6.73;;;3.00;;
12654;SDS011;6392;44.644;11.448;2023-07-31T03:39:37;4.23;;;2.80;;
12654;SDS011;6392;44.644;11.448;2023-07-31T03:42:06;4.60;;;2.60;;
12654;SDS011;6392;44.644;11.448;2023-07-31T03:44:33;3.27;;;2.37;;
12654;SDS011;6392;44.644;11.448;2023-07-31T03:47:00;5.20;;;2.80;;
12654;SDS011;6392;44.644;11.448;2023-07-31T03:49:27;5.50;;;2.90;;
12654;SDS011;6392;44.644;11.448;2023-07-31T03:51:54;4.80;;;3.03;;
12654;SDS011;6392;44.644;11.448;2023-07-31T03:54:21;3.93;;;3.30;;
12654;SDS011;6392;44.644;11.448;2023-07-31T03:56:48;3.13;;;2.83;;
12654;SDS011;6392;44.644;11.448;2023-07-31T03:59:17;3.13;;;2.70;;
12654;SDS011;6392;44.644;11.448;2023-07-31T04:01:44;6.47;;;3.10;;
12654;SDS011;6392;44.644;11.448;2023-07-31T04:04:11;3.33;;;2.70;;
12654;SDS011;6392;44.644;11.448;2023-07-31T04:06:38;4.80;;;2.80;;
12654;SDS011;6392;44.644;11.448;2023-07-31T04:09:05;5.53;;;3.20;;
12654;SDS011;6392;44.644;11.448;2023-07-31T04:11:31;4.03;;;3.03;;
12654;SDS011;6392;44.644;11.448;2023-07-31T04:13:59;5.03;;;2.90;;
12654;SDS011;6392;44.644;11.448;2023-07-31T04:16:27;4.00;;;2.53;;
12654;SDS011;6392;44.644;11.448;2023-07-31T04:18:54;2.77;;;2.43;;
12654;SDS011;6392;44.644;11.448;2023-07-31T04:21:21;4.53;;;3.00;;
12654;SDS011;6392;44.644;11.448;2023-07-31T04:23:48;4.33;;;3.40;;
12654;SDS011;6392;44.644;11.448;2023-07-31T04:26:15;3.67;;;3.30;;
12654;SDS011;6392;44.644;11.448;2023-07-31T04:28:42;4.27;;;2.80;;
12654;SDS011;6392;44.644;11.448;2023-07-31T04:31:09;5.43;;;3.30;;
12654;SDS011;6392;44.644;11.448;2023-07-31T04:33:37;4.67;;;3.10;;
12654;SDS011;6392;44.644;11.448;2023-07-31T04:36:04;5.87;;;3.60;;
12654;SDS011;6392;44.644;11.448;2023-07-31T04:38:31;6.33;;;3.27;;
12654;SDS011;6392;44.644;11.448;2023-07-31T04:40:58;4.57;;;3.07;;
12654;SDS011;6392;44.644;11.448;2023-07-31T04:43:25;4.07;;;2.90;;
12654;SDS011;6392;44.644;11.448;2023-07-31T04:45:52;4.30;;;2.93;;
12654;SDS011;6392;44.644;11.448;2023-07-31T04:48:19;5.40;;;3.20;;
12654;SDS011;6392;44.644;11.448;2023-07-31T04:50:48;4.13;;;2.90;;
12654;SDS011;6392;44.644;11.448;2023-07-31T04:53:15;3.57;;;3.23;;
12654;SDS011;6392;44.644;11.448;2023-07-31T04:55:42;4.67;;;3.47;;
12654;SDS011;6392;44.644;11.448;2023-07-31T04:58:09;3.30;;;3.00;;
12654;SDS011;6392;44.644;11.448;2023-07-31T05:00:36;4.97;;;3.30;;
12654;SDS011;6392;44.644;11.448;2023-07-31T05:03:03;4.25;;;2.72;;
12654;SDS011;6392;44.644;11.448;2023-07-31T05:05:30;6.28;;;3.40;;
12654;SDS011;6392;44.644;11.448;2023-07-31T05:07:58;3.90;;;2.78;;
12654;SDS011;6392;44.644;11.448;2023-07-31T05:10:25;3.70;;;3.20;;
12654;SDS011;6392;44.644;11.448;2023-07-31T05:12:52;6.70;;;3.50;;
12654;SDS011;6392;44.644;11.448;2023-07-31T05:15:19;3.72;;;3.03;;
12654;SDS011;6392;44.644;11.448;2023-07-31T05:17:46;4.90;;;3.45;;
12654;SDS011;6392;44.644;11.448;2023-07-31T05:20:13;4.73;;;3.27;;
12654;SDS011;6392;44.644;11.448;2023-07-31T05:22:41;4.15;;;3.13;;
12654;SDS011;6392;44.644;11.448;2023-07-31T05:25:09;3.13;;;2.83;;
12654;SDS011;6392;44.644;11.448;2023-07-31T05:27:36;6.00;;;3.28;;
12654;SDS011;6392;44.644;11.448;2023-07-31T05:30:03;4.73;;;2.90;;
12654;SDS011;6392;44.644;11.448;2023-07-31T05:32:31;5.55;;;2.92;;
12654;SDS011;6392;44.644;11.448;2023-07-31T05:34:58;4.55;;;3.35;;
12654;SDS011;6392;44.644;11.448;2023-07-31T05:37:25;4.40;;;3.03;;
12654;SDS011;6392;44.644;11.448;2023-07-31T05:39:52;4.57;;;3.08;;
12654;SDS011;6392;44.644;11.448;2023-07-31T05:42:21;5.07;;;2.78;;
12654;SDS011;6392;44.644;11.448;2023-07-31T05:44:48;4.95;;;3.20;;
12654;SDS011;6392;44.644;11.448;2023-07-31T05:47:14;3.03;;;2.65;;
12654;SDS011;6392;44.644;11.448;2023-07-31T05:49:42;3.50;;;2.95;;
12654;SDS011;6392;44.644;11.448;2023-07-31T05:52:09;4.80;;;3.00;;
12654;SDS011;6392;44.644;11.448;2023-07-31T05:54:36;4.32;;;3.42;;
12654;SDS011;6392;44.644;11.448;2023-07-31T05:57:03;4.13;;;3.60;;
12654;SDS011;6392;44.644;11.448;2023-07-31T05:59:32;3.30;;;2.88;;
12654;SDS011;6392;44.644;11.448;2023-07-31T06:01:59;4.43;;;3.63;;
12654;SDS011;6392;44.644;11.448;2023-07-31T06:04:26;5.55;;;3.60;;
12654;SDS011;6392;44.644;11.448;2023-07-31T06:06:53;4.63;;;2.92;;
12654;SDS011;6392;44.644;11.448;2023-07-31T06:09:20;4.15;;;3.20;;
12654;SDS011;6392;44.644;11.448;2023-07-31T06:11:47;5.07;;;3.05;;
12654;SDS011;6392;44.644;11.448;2023-07-31T06:14:15;5.03;;;3.37;;
12654;SDS011;6392;44.644;11.448;2023-07-31T06:16:43;3.50;;;3.20;;
12654;SDS011;6392;44.644;11.448;2023-07-31T06:19:10;4.55;;;3.35;;
12654;SDS011;6392;44.644;11.448;2023-07-31T06:21:38;3.58;;;3.17;;
12654;SDS011;6392;44.644;11.448;2023-07-31T06:24:07;4.65;;;3.67;;
12654;SDS011;6392;44.644;11.448;2023-07-31T06:26:34;5.40;;;3.50;;
12654;SDS011;6392;44.644;11.448;2023-07-31T06:29:01;4.07;;;3.10;;
12654;SDS011;6392;44.644;11.448;2023-07-31T06:31:28;6.13;;;3.35;;
12654;SDS011;6392;44.644;11.448;2023-07-31T06:33:56;4.55;;;3.28;;
12654;SDS011;6392;44.644;11.448;2023-07-31T06:36:23;3.35;;;3.05;;
12654;SDS011;6392;44.644;11.448;2023-07-31T06:38:50;3.60;;;3.25;;
12654;SDS011;6392;44.644;11.448;2023-07-31T06:41:17;3.20;;;2.90;;
12654;SDS011;6392;44.644;11.448;2023-07-31T06:43:44;4.00;;;3.65;;
12654;SDS011;6392;44.644;11.448;2023-07-31T06:46:11;4.07;;;3.33;;
12654;SDS011;6392;44.644;11.448;2023-07-31T06:48:38;3.70;;;3.35;;
12654;SDS011;6392;44.644;11.448;2023-07-31T06:51:07;3.60;;;2.80;;
12654;SDS011;6392;44.644;11.448;2023-07-31T06:53:34;3.25;;;2.80;;
12654;SDS011;6392;44.644;11.448;2023-07-31T06:56:01;3.60;;;2.80;;
12654;SDS011;6392;44.644;11.448;2023-07-31T06:58:28;2.78;;;2.47;;
12654;SDS011;6392;44.644;11.448;2023-07-31T07:00:54;3.45;;;2.63;;
12654;SDS011;6392;44.644;11.448;2023-07-31T07:03:21;2.80;;;2.30;;
12654;SDS011;6392;44.644;11.448;2023-07-31T07:05:48;2.85;;;2.58;;
12654;SDS011;6392;44.644;11.448;2023-07-31T07:08:17;2.83;;;2.47;;
12654;SDS011;6392;44.644;11.448;2023-07-31T07:10:44;3.63;;;2.72;;
12654;SDS011;6392;44.644;11.448;2023-07-31T07:13:11;4.43;;;2.67;;
12654;SDS011;6392;44.644;11.448;2023-07-31T07:15:38;2.53;;;2.33;;
12654;SDS011;6392;44.644;11.448;2023-07-31T07:18:06;2.80;;;2.53;;
12654;SDS011;6392;44.644;11.448;2023-07-31T07:20:32;3.50;;;2.10;;
12654;SDS011;6392;44.644;11.448;2023-07-31T07:22:59;2.95;;;2.65;;
12654;SDS011;6392;44.644;11.448;2023-07-31T07:25:28;2.67;;;2.45;;
12654;SDS011;6392;44.644;11.448;2023-07-31T07:27:55;2.83;;;2.15;;
12654;SDS011;6392;44.644;11.448;2023-07-31T07:30:22;2.47;;;2.28;;
12654;SDS011;6392;44.644;11.448;2023-07-31T07:32:50;2.47;;;2.00;;
12654;SDS011;6392;44.644;11.448;2023-07-31T07:35:17;2.72;;;2.15;;
12654;SDS011;6392;44.644;11.448;2023-07-31T07:37:44;4.50;;;2.55;;
12654;SDS011;6392;44.644;11.448;2023-07-31T07:40:11;2.95;;;2.58;;
12654;SDS011;6392;44.644;11.448;2023-07-31T07:42:39;4.35;;;2.78;;
12654;SDS011;6392;44.644;11.448;2023-07-31T07:45:07;2.97;;;2.22;;
12654;SDS011;6392;44.644;11.448;2023-07-31T07:47:34;2.47;;;2.28;;
12654;SDS011;6392;44.644;11.448;2023-07-31T07:50:01;2.80;;;2.50;;
12654;SDS011;6392;44.644;11.448;2023-07-31T07:52:28;2.40;;;2.20;;
12654;SDS011;6392;44.644;11.448;2023-07-31T07:54:55;4.07;;;2.13;;
12654;SDS011;6392;44.644;11.448;2023-07-31T07:57:22;3.22;;;2.17;;
12654;SDS011;6392;44.644;11.448;2023-07-31T07:59:50;2.60;;;1.70;;
12654;SDS011;6392;44.644;11.448;2023-07-31T08:02:17;2.45;;;2.25;;
12654;SDS011;6392;44.644;11.448;2023-07-31T08:04:44;2.28;;;2.08;;
12654;SDS011;6392;44.644;11.448;2023-07-31T08:07:11;2.72;;;2.40;;
12654;SDS011;6392;44.644;11.448;2023-07-31T08:09:39;2.45;;;1.98;;
12654;SDS011;6392;44.644;11.448;2023-07-31T08:12:06;2.88;;;2.15;;
12654;SDS011;6392;44.644;11.448;2023-07-31T08:14:33;2.28;;;2.03;;
12654;SDS011;6392;44.644;11.448;2023-07-31T08:17:02;2.20;;;1.73;;
12654;SDS011;6392;44.644;11.448;2023-07-31T08:19:30;1.73;;;1.60;;
12654;SDS011;6392;44.644;11.448;2023-07-31T08:21:57;2.10;;;1.90;;
12654;SDS011;6392;44.644;11.448;2023-07-31T08:24:24;2.35;;;1.80;;
12654;SDS011;6392;44.644;11.448;2023-07-31T08:26:50;2.22;;;1.70;;
12654;SDS011;6392;44.644;11.448;2023-07-31T08:29:17;1.95;;;1.75;;
12654;SDS011;6392;44.644;11.448;2023-07-31T08:31:44;2.10;;;1.90;;
12654;SDS011;6392;44.644;11.448;2023-07-31T08:34:13;1.98;;;1.40;;
12654;SDS011;6392;44.644;11.448;2023-07-31T08:36:40;3.90;;;1.85;;
12654;SDS011;6392;44.644;11.448;2023-07-31T08:39:07;1.98;;;1.55;;
12654;SDS011;6392;44.644;11.448;2023-07-31T08:41:37;2.15;;;1.80;;
12654;SDS011;6392;44.644;11.448;2023-07-31T08:44:04;2.80;;;1.60;;
12654;SDS011;6392;44.644;11.448;2023-07-31T08:46:32;1.58;;;1.48;;
12654;SDS011;6392;44.644;11.448;2023-07-31T08:49:01;2.05;;;1.50;;
12654;SDS011;6392;44.644;11.448;2023-07-31T08:51:33;2.45;;;2.25;;
12654;SDS011;6392;44.644;11.448;2023-07-31T08:54:00;2.30;;;1.80;;
12654;SDS011;6392;44.644;11.448;2023-07-31T08:56:29;1.90;;;1.70;;
12654;SDS011;6392;44.644;11.448;2023-07-31T08:58:57;1.90;;;1.70;;
12654;SDS011;6392;44.644;11.448;2023-07-31T09:01:27;3.00;;;1.70;;
12654;SDS011;6392;44.644;11.448;2023-07-31T09:03:56;1.80;;;1.60;;
12654;SDS011;6392;44.644;11.448;2023-07-31T09:06:25;1.88;;;1.60;;
12654;SDS011;6392;44.644;11.448;2023-07-31T09:08:56;2.50;;;1.70;;
12654;SDS011;6392;44.644;11.448;2023-07-31T09:11:23;1.95;;;1.80;;
12654;SDS011;6392;44.644;11.448;2023-07-31T09:13:52;3.72;;;1.95;;
12654;SDS011;6392;44.644;11.448;2023-07-31T09:16:26;2.33;;;1.98;;
12654;SDS011;6392;44.644;11.448;2023-07-31T09:18:55;3.67;;;1.95;;
12654;SDS011;6392;44.644;11.448;2023-07-31T09:21:23;2.15;;;1.70;;
12654;SDS011;6392;44.644;11.448;2023-07-31T09:23:52;2.28;;;1.73;;
12654;SDS011;6392;44.644;11.448;2023-07-31T09:26:31;2.88;;;1.75;;
12654;SDS011;6392;44.644;11.448;2023-07-31T09:28:59;2.17;;;1.75;;
12654;SDS011;6392;44.644;11.448;2023-07-31T09:31:33;3.03;;;1.95;;
12654;SDS011;6392;44.644;11.448;2023-07-31T09:34:10;2.00;;;1.50;;
12654;SDS011;6392;44.644;11.448;2023-07-31T09:36:42;2.25;;;1.50;;
12654;SDS011;6392;44.644;11.448;2023-07-31T09:39:09;3.03;;;2.00;;
12654;SDS011;6392;44.644;11.448;2023-07-31T09:41:39;2.08;;;1.63;;
12654;SDS011;6392;44.644;11.448;2023-07-31T09:44:07;2.42;;;1.80;;
12654;SDS011;6392;44.644;11.448;2023-07-31T09:46:34;1.90;;;1.60;;
12654;SDS011;6392;44.644;11.448;2023-07-31T09:49:05;1.98;;;1.67;;
12654;SDS011;6392;44.644;11.448;2023-07-31T09:51:34;1.70;;;1.60;;
12654;SDS011;6392;44.644;11.448;2023-07-31T09:54:04;2.83;;;1.55;;
12654;SDS011;6392;44.644;11.448;2023-07-31T09:56:41;1.52;;;1.42;;
12654;SDS011;6392;44.644;11.448;2023-07-31T09:59:10;1.80;;;1.70;;
12654;SDS011;6392;44.644;11.448;2023-07-31T10:01:38;1.95;;;1.67;;
12654;SDS011;6392;44.644;11.448;2023-07-31T10:04:07;2.33;;;1.70;;
12654;SDS011;6392;44.644;11.448;2023-07-31T10:06:35;2.20;;;1.77;;
12654;SDS011;6392;44.644;11.448;2023-07-31T10:09:03;3.05;;;1.73;;
12654;SDS011;6392;44.644;11.448;2023-07-31T10:11:33;1.70;;;1.60;;
12654;SDS011;6392;44.644;11.448;2023-07-31T10:14:06;2.25;;;1.48;;
12654;SDS011;6392;44.644;11.448;2023-07-31T10:16:34;1.80;;;1.70;;
12654;SDS011;6392;44.644;11.448;2023-07-31T10:19:04;1.73;;;1.50;;
12654;SDS011;6392;44.644;11.448;2023-07-31T10:21:33;2.42;;;1.67;;
12654;SDS011;6392;44.644;11.448;2023-07-31T10:24:02;1.63;;;1.52;;
12654;SDS011;6392;44.644;11.448;2023-07-31T10:26:31;3.42;;;1.88;;
12654;SDS011;6392;44.644;11.448;2023-07-31T10:28:58;1.50;;;1.40;;
12654;SDS011;6392;44.644;11.448;2023-07-31T10:31:27;2.55;;;1.90;;
12654;SDS011;6392;44.644;11.448;2023-07-31T10:33:54;2.42;;;1.92;;
12654;SDS011;6392;44.644;11.448;2023-07-31T10:36:23;2.13;;;1.92;;
12654;SDS011;6392;44.644;11.448;2023-07-31T10:38:50;2.65;;;1.60;;
12654;SDS011;6392;44.644;11.448;2023-07-31T10:41:17;2.45;;;1.77;;
12654;SDS011;6392;44.644;11.448;2023-07-31T10:43:45;2.00;;;1.90;;
12654;SDS011;6392;44.644;11.448;2023-07-31T10:46:13;3.10;;;2.00;;
12654;SDS011;6392;44.644;11.448;2023-07-31T10:48:42;3.22;;;2.05;;
12654;SDS011;6392;44.644;11.448;2023-07-31T10:51:09;2.85;;;2.00;;
12654;SDS011;6392;44.644;11.448;2023-07-31T10:53:37;2.03;;;1.83;;
12654;SDS011;6392;44.644;11.448;2023-07-31T10:56:07;3.15;;;1.85;;
12654;SDS011;6392;44.644;11.448;2023-07-31T10:58:37;4.25;;;2.20;;
12654;SDS011;6392;44.644;11.448;2023-07-31T11:01:05;1.90;;;1.63;;
12654;SDS011;6392;44.644;11.448;2023-07-31T11:03:43;3.42;;;1.83;;
12654;SDS011;6392;44.644;11.448;2023-07-31T11:06:12;1.95;;;1.75;;
12654;SDS011;6392;44.644;11.448;2023-07-31T11:08:43;2.00;;;1.90;;
12654;SDS011;6392;44.644;11.448;2023-07-31T11:11:11;3.25;;;2.00;;
12654;SDS011;6392;44.644;11.448;2023-07-31T11:13:40;2.13;;;1.88;;
12654;SDS011;6392;44.644;11.448;2023-07-31T11:16:08;2.33;;;1.98;;
12654;SDS011;6392;44.644;11.448;2023-07-31T11:18:35;2.97;;;2.20;;
12654;SDS011;6392;44.644;11.448;2023-07-31T11:21:06;2.20;;;1.85;;
12654;SDS011;6392;44.644;11.448;2023-07-31T11:23:33;2.30;;;2.08;;
12654;SDS011;6392;44.644;11.448;2023-07-31T11:26:00;2.38;;;1.88;;
12654;SDS011;6392;44.644;11.448;2023-07-31T11:28:30;2.00;;;1.90;;
12654;SDS011;6392;44.644;11.448;2023-07-31T11:30:58;2.20;;;1.85;;
12654;SDS011;6392;44.644;11.448;2023-07-31T11:33:26;2.92;;;2.03;;
12654;SDS011;6392;44.644;11.448;2023-07-31T11:35:53;2.47;;;2.20;;
12654;SDS011;6392;44.644;11.448;2023-07-31T11:38:25;2.15;;;1.88;;
12654;SDS011;6392;44.644;11.448;2023-07-31T11:40:53;2.40;;;2.20;;
12654;SDS011;6392;44.644;11.448;2023-07-31T11:43:21;2.60;;;2.15;;
12654;SDS011;6392;44.644;11.448;2023-07-31T11:45:49;2.40;;;2.10;;
12654;SDS011;6392;44.644;11.448;2023-07-31T11:48:20;3.45;;;2.20;;
12654;SDS011;6392;44.644;11.448;2023-07-31T11:50:49;3.25;;;1.90;;
12654;SDS011;6392;44.644;11.448;2023-07-31T11:53:17;2.50;;;2.10;;
12654;SDS011;6392;44.644;11.448;2023-07-31T11:55:49;2.05;;;1.85;;
12654;SDS011;6392;44.644;11.448;2023-07-31T11:58:16;3.00;;;2.10;;
12654;SDS011;6392;44.644;11.448;2023-07-31T12:00:45;3.05;;;1.92;;
12654;SDS011;6392;44.644;11.448;2023-07-31T12:03:12;1.80;;;1.70;;
12654;SDS011;6392;44.644;11.448;2023-07-31T12:05:40;2.30;;;1.98;;
12654;SDS011;6392;44.644;11.448;2023-07-31T12:08:11;2.33;;;2.17;;
12654;SDS011;6392;44.644;11.448;2023-07-31T12:10:38;2.45;;;2.00;;
12654;SDS011;6392;44.644;11.448;2023-07-31T12:13:07;2.42;;;1.70;;
12654;SDS011;6392;44.644;11.448;2023-07-31T12:15:39;2.22;;;2.03;;
12654;SDS011;6392;44.644;11.448;2023-07-31T12:18:08;2.30;;;2.10;;
12654;SDS011;6392;44.644;11.448;2023-07-31T12:20:39;2.08;;;1.88;;
12654;SDS011;6392;44.644;11.448;2023-07-31T12:23:12;2.10;;;1.90;;
12654;SDS011;6392;44.644;11.448;2023-07-31T12:25:40;3.35;;;2.10;;
12654;SDS011;6392;44.644;11.448;2023-07-31T12:28:09;2.78;;;2.35;;
12654;SDS011;6392;44.644;11.448;2023-07-31T12:30:37;2.42;;;2.13;;
12654;SDS011;6392;44.644;11.448;2023-07-31T12:33:06;2.45;;;2.00;;
12654;SDS011;6392;44.644;11.448;2023-07-31T12:35:38;3.53;;;2.10;;
12654;SDS011;6392;44.644;11.448;2023-07-31T12:38:07;1.88;;;1.73;;
12654;SDS011;6392;44.644;11.448;2023-07-31T12:40:36;2.25;;;1.92;;
12654;SDS011;6392;44.644;11.448;2023-07-31T12:43:04;2.63;;;2.40;;
12654;SDS011;6392;44.644;11.448;2023-07-31T12:45:33;2.28;;;2.08;;
12654;SDS011;6392;44.644;11.448;2023-07-31T12:48:00;4.47;;;2.40;;
12654;SDS011;6392;44.644;11.448;2023-07-31T12:50:27;2.13;;;1.90;;
12654;SDS011;6392;44.644;11.448;2023-07-31T12:52:54;2.13;;;1.98;;
12654;SDS011;6392;44.644;11.448;2023-07-31T12:55:22;2.40;;;2.20;;
12654;SDS011;6392;44.644;11.448;2023-07-31T12:57:50;2.47;;;2.03;;
12654;SDS011;6392;44.644;11.448;2023-07-31T13:00:17;4.57;;;2.08;;
12654;SDS011;6392;44.644;11.448;2023-07-31T13:02:46;2.63;;;2.42;;
12654;SDS011;6392;44.644;11.448;2023-07-31T13:05:13;2.50;;;2.30;;
12654;SDS011;6392;44.644;11.448;2023-07-31T13:07:40;2.30;;;2.08;;
12654;SDS011;6392;44.644;11.448;2023-07-31T13:10:07;2.60;;;2.15;;
12654;SDS011;6392;44.644;11.448;2023-07-31T13:12:35;2.33;;;2.13;;
12654;SDS011;6392;44.644;11.448;2023-07-31T13:15:03;2.90;;;1.60;;
12654;SDS011;6392;44.644;11.448;2023-07-31T13:17:31;2.15;;;1.95;;
12654;SDS011;6392;44.644;11.448;2023-07-31T13:19:59;3.83;;;1.98;;
12654;SDS011;6392;44.644;11.448;2023-07-31T13:22:27;2.65;;;2.10;;
12654;SDS011;6392;44.644;11.448;2023-07-31T13:24:54;3.15;;;2.35;;
12654;SDS011;6392;44.644;11.448;2023-07-31T13:27:21;2.33;;;1.42;;
12654;SDS011;6392;44.644;11.448;2023-07-31T13:29:49;1.67;;;1.50;;
12654;SDS011;6392;44.644;11.448;2023-07-31T13:32:17;2.60;;;1.98;;
12654;SDS011;6392;44.644;11.448;2023-07-31T13:34:44;2.95;;;2.35;;
12654;SDS011;6392;44.644;11.448;2023-07-31T13:37:13;2.33;;;1.92;;
12654;SDS011;6392;44.644;11.448;2023-07-31T13:39:41;2.53;;;2.25;;
12654;SDS011;6392;44.644;11.448;2023-07-31T13:42:09;2.45;;;2.20;;
12654;SDS011;6392;44.644;11.448;2023-07-31T13:44:37;4.28;;;2.10;;
12654;SDS011;6392;44.644;11.448;2023-07-31T13:47:04;2.20;;;1.95;;
12654;SDS011;6392;44.644;11.448;2023-07-31T13:49:32;2.45;;;2.20;;
12654;SDS011;6392;44.644;11.448;2023-07-31T13:51:59;3.97;;;2.25;;
12654;SDS011;6392;44.644;11.448;2023-07-31T13:54:28;3.55;;;2.15;;
12654;SDS011;6392;44.644;11.448;2023-07-31T13:56:55;2.42;;;2.08;;
12654;SDS011;6392;44.644;11.448;2023-07-31T13:59:22;2.63;;;2.30;;
12654;SDS011;6392;44.644;11.448;2023-07-31T14:01:49;2.00;;;1.90;;
12654;SDS011;6392;44.644;11.448;2023-07-31T14:04:17;2.67;;;2.10;;
12654;SDS011;6392;44.644;11.448;2023-07-31T14:06:44;3.20;;;2.10;;
12654;SDS011;6392;44.644;11.448;2023-07-31T14:09:13;2.25;;;1.90;;
12654;SDS011;6392;44.644;11.448;2023-07-31T14:11:41;2.40;;;2.15;;
12654;SDS011;6392;44.644;11.448;2023-07-31T14:14:09;2.20;;;2.00;;
12654;SDS011;6392;44.644;11.448;2023-07-31T14:16:36;2.35;;;2.10;;
12654;SDS011;6392;44.644;11.448;2023-07-31T14:19:03;4.28;;;2.05;;
12654;SDS011;6392;44.644;11.448;2023-07-31T14:21:30;2.00;;;1.80;;
12654;SDS011;6392;44.644;11.448;2023-07-31T14:23:57;2.47;;;2.10;;
12654;SDS011;6392;44.644;11.448;2023-07-31T14:26:24;2.38;;;2.17;;
12654;SDS011;6392;44.644;11.448;2023-07-31T14:28:52;2.45;;;2.22;;
12654;SDS011;6392;44.644;11.448;2023-07-31T14:31:19;5.07;;;2.20;;
12654;SDS011;6392;44.644;11.448;2023-07-31T14:33:46;1.75;;;1.60;;
12654;SDS011;6392;44.644;11.448;2023-07-31T14:36:13;2.47;;;2.00;;
12654;SDS011;6392;44.644;11.448;2023-07-31T14:38:40;2.28;;;2.00;;
12654;SDS011;6392;44.644;11.448;2023-07-31T14:41:07;1.80;;;1.70;;
12654;SDS011;6392;44.644;11.448;2023-07-31T14:43:34;3.20;;;1.83;;
12654;SDS011;6392;44.644;11.448;2023-07-31T14:46:02;2.78;;;2.00;;
12654;SDS011;6392;44.644;11.448;2023-07-31T14:48:29;4.32;;;2.08;;
12654;SDS011;6392;44.644;11.448;2023-07-31T14:50:56;2.28;;;2.08;;
12654;SDS011;6392;44.644;11.448;2023-07-31T14:53:23;2.72;;;1.90;;